Time;durP1;ratioP1;P1;durP2;ratioP2;P2;SDS_P1;SDS_P2;PMS_P1;PMS_P2;Temp;Humidity;BMP_temperature;BMP_pressure;BME280_temperature;BME280_humidity;BME280_pressure;Samples;Min_cycle;Max_cycle;Signal;HPM_P1;HPM_P2
2021/10/20 00:01:27;;;;;;;52.87;31.27;;;;;;;;;;4996192;28;20181;-88
2021/10/20 00:03:53;;;;;;;15.77;9.40;;;;;;;;;;4996799;28;20185;-87
2021/10/20 00:06:19;;;;;;;14.80;7.77;;;;;;;;;;4996605;28;20556;-88
2021/10/20 00:08:45;;;;;;;18.27;9.33;;;;;;;;;;4996574;28;20640;-90
2021/10/20 00:11:11;;;;;;;75.90;27.23;;;9.30;99.90;;;;;;4996109;28;20670;-89
2021/10/20 00:13:37;;;;;;;108.23;35.17;;;;;;;;;;5013930;28;20177;-88
2021/10/20 00:16:03;;;;;;;31.57;16.17;;;;;;;;;;5013588;28;20232;-88
2021/10/20 00:18:29;;;;;;;11.43;6.30;;;;;;;;;;4995609;28;20189;-88
2021/10/20 00:20:58;;;;;;;10.30;5.30;;;9.30;99.90;;;;;;5012904;28;20200;-87
2021/10/20 00:23:24;;;;;;;16.13;9.20;;;;;;;;;;4996298;28;20184;-87
2021/10/20 00:25:50;;;;;;;9.17;5.37;;;;;;;;;;4995563;28;20282;-88
2021/10/20 00:28:16;;;;;;;8.23;5.43;;;;;;;;;;5013531;28;20177;-87
2021/10/20 00:30:42;;;;;;;8.00;4.87;;;;;;;;;;4995656;28;20188;-88
2021/10/20 00:33:08;;;;;;;13.97;8.90;;;;;;;;;;4995149;28;20396;-88
2021/10/20 00:35:34;;;;;;;9.90;5.27;;;9.40;99.90;;;;;;5012891;28;20233;-87
2021/10/20 00:38:00;;;;;;;10.60;5.00;;;;;;;;;;5013137;28;20187;-88
2021/10/20 00:40:26;;;;;;;9.60;5.00;;;;;;;;;;5012174;28;20185;-87
2021/10/20 00:42:52;;;;;;;11.40;4.97;;;;;;;;;;5011769;28;20185;-87
2021/10/20 00:45:18;;;;;;;10.23;5.47;;;;;;;;;;5011847;28;20185;-87
2021/10/20 00:47:44;;;;;;;10.40;6.87;;;;;;;;;;5012618;28;20255;-88
2021/10/20 00:50:15;;;;;;;8.03;5.20;;;9.30;99.90;;;;;;5011395;28;20635;-88
2021/10/20 00:52:41;;;;;;;8.23;5.23;;;;;;;;;;4995572;28;20185;-88
2021/10/20 00:55:09;;;;;;;12.17;4.67;;;9.40;99.90;;;;;;5011978;28;20235;-87
2021/10/20 00:57:35;;;;;;;10.13;4.87;;;;;;;;;;5013154;28;20213;-87
2021/10/20 01:00:04;;;;;;;7.87;5.03;;;9.30;99.90;;;;;;5011723;28;20181;-88
2021/10/20 01:02:30;;;;;;;10.70;5.47;;;;;;;;;;5012686;28;20231;-87
2021/10/20 01:04:56;;;;;;;14.27;5.03;;;;;;;;;;5011115;28;20632;-87
2021/10/20 01:07:23;;;;;;;6.80;4.80;;;;;;;;;;5012986;28;20204;-87
2021/10/20 01:09:49;;;;;;;9.83;5.83;;;;;;;;;;5012064;28;20193;-86
2021/10/20 01:12:16;;;;;;;9.10;5.10;;;9.20;99.90;;;;;;5012112;28;20242;-87
2021/10/20 01:14:44;;;;;;;12.73;6.47;;;9.20;99.90;;;;;;4999052;28;20203;-88
2021/10/20 01:17:10;;;;;;;14.87;9.67;;;;;;;;;;5016772;28;20267;-88
2021/10/20 01:19:37;;;;;;;12.07;7.10;;;9.10;99.90;;;;;;5015577;28;20181;-88
2021/10/20 01:22:03;;;;;;;13.57;6.27;;;9.10;99.90;;;;;;4999019;28;20177;-87
2021/10/20 01:24:30;;;;;;;10.17;6.00;;;;;;;;;;4999358;28;20181;-88
2021/10/20 01:26:56;;;;;;;9.67;5.87;;;;;;;;;;5015060;28;20205;-88
2021/10/20 01:29:26;;;;;;;8.87;6.20;;;9.00;99.90;;;;;;5015358;28;20212;-88
2021/10/20 01:31:59;;;;;;;10.37;6.37;;;9.00;99.90;;;;;;5000405;28;20181;-88
2021/10/20 01:34:25;;;;;;;10.57;6.53;;;;;;;;;;5002234;28;20181;-85
2021/10/20 01:36:52;;;;;;;9.93;6.30;;;9.10;99.90;;;;;;5040869;28;20224;-88
2021/10/20 01:39:19;;;;;;;9.03;5.87;;;9.00;99.90;;;;;;5036934;28;20328;-87
2021/10/20 01:41:46;;;;;;;10.73;6.67;;;9.10;99.90;;;;;;4999089;28;20185;-87
2021/10/20 01:44:12;;;;;;;23.20;10.27;;;;;;;;;;5015952;28;20177;-88
2021/10/20 01:46:40;;;;;;;22.47;11.07;;;;;;;;;;4998141;28;20217;-88
2021/10/20 01:49:07;;;;;;;13.60;8.87;;;;;;;;;;4998224;28;20185;-88
2021/10/20 01:51:33;;;;;;;11.00;6.60;;;;;;;;;;5015116;28;20224;-88
2021/10/20 01:54:02;;;;;;;11.37;5.70;;;;;;;;;;5014983;28;20216;-88
2021/10/20 01:56:31;;;;;;;6.67;5.00;;;;;;;;;;5014800;28;20200;-88
2021/10/20 01:59:00;;;;;;;7.93;4.97;;;;;;;;;;4999283;28;20201;-89
2021/10/20 02:01:26;;;;;;;8.40;4.63;;;;;;;;;;5015777;28;20174;-88
2021/10/20 02:03:54;;;;;;;7.47;4.77;;;;;;;;;;5014609;28;20285;-88
2021/10/20 02:06:20;;;;;;;6.63;4.20;;;;;;;;;;5013905;28;20613;-88
2021/10/20 02:08:48;;;;;;;6.77;4.57;;;9.40;99.90;;;;;;5014617;28;20203;-88
2021/10/20 02:11:17;;;;;;;8.50;4.83;;;9.50;99.90;;;;;;4998235;28;20628;-87
2021/10/20 02:13:48;;;;;;;8.97;5.00;;;9.50;99.90;;;;;;4998383;28;20181;-88
2021/10/20 02:16:13;;;;;;;10.67;4.53;;;9.50;99.90;;;;;;4997947;28;20165;-87
2021/10/20 02:18:40;;;;;;;12.03;4.67;;;;;;;;;;4998151;28;20176;-88
2021/10/20 02:21:06;;;;;;;6.73;4.50;;;;;;;;;;5015864;28;20296;-87
2021/10/20 02:23:32;;;;;;;7.23;4.63;;;;;;;;;;5014420;28;20272;-88
2021/10/20 02:25:58;;;;;;;5.50;3.97;;;;;;;;;;5012199;28;20205;-89
2021/10/20 02:28:24;;;;;;;10.87;5.00;;;;;;;;;;5014442;28;20189;-88
2021/10/20 02:30:51;;;;;;;8.00;4.40;;;;;;;;;;5014627;28;20189;-88
2021/10/20 02:33:17;;;;;;;7.50;4.47;;;;;;;;;;5014244;28;20188;-88
2021/10/20 02:35:43;;;;;;;7.03;4.13;;;;;;;;;;5013271;28;20244;-89
2021/10/20 02:38:11;;;;;;;8.23;4.43;;;;;;;;;;4997203;28;20243;-89
2021/10/20 02:40:37;;;;;;;7.87;4.50;;;;;;;;;;5015595;28;20188;-89
2021/10/20 02:43:03;;;;;;;8.93;5.18;;;;;;;;;;4997440;28;20814;-88
2021/10/20 02:45:29;;;;;;;8.53;5.13;;;;;;;;;;4997382;28;20189;-88
2021/10/20 02:47:58;;;;;;;7.30;4.47;;;9.40;99.90;;;;;;4997351;28;20181;-88
2021/10/20 02:50:29;;;;;;;11.57;5.17;;;9.50;99.90;;;;;;4997319;28;20180;-88
2021/10/20 02:52:56;;;;;;;9.70;4.77;;;9.50;99.90;;;;;;4996812;28;20239;-88
2021/10/20 02:55:22;;;;;;;7.17;4.60;;;;;;;;;;4996974;28;20177;-88
2021/10/20 02:57:48;;;;;;;8.13;4.63;;;;;;;;;;4997433;28;20181;-88
2021/10/20 03:00:14;;;;;;;6.53;4.43;;;;;;;;;;4997484;28;20181;-88
2021/10/20 03:02:40;;;;;;;9.60;4.80;;;;;;;;;;4996922;28;20628;-88
2021/10/20 03:05:09;;;;;;;7.17;4.67;;;9.60;99.90;;;;;;4997438;28;20181;-88
2021/10/20 03:07:35;;;;;;;11.00;4.70;;;;;;;;;;4980841;28;20198;-88
2021/10/20 03:10:02;;;;;;;6.63;4.33;;;;;;;;;;4997203;28;20198;-87
2021/10/20 03:12:28;;;;;;;6.80;4.37;;;;;;;;;;5014013;28;20628;-88
2021/10/20 03:14:54;;;;;;;13.27;4.70;;;;;;;;;;4997075;28;20177;-88
2021/10/20 03:17:23;;;;;;;9.93;4.60;;;;;;;;;;4997196;28;20579;-88
2021/10/20 03:19:51;;;;;;;11.67;4.67;;;;;;;;;;5013989;28;20177;-88
2021/10/20 03:22:17;;;;;;;8.57;4.50;;;;;;;;;;4996973;28;20231;-87
2021/10/20 03:24:44;;;;;;;7.23;4.50;;;;;;;;;;4996982;28;20177;-88
2021/10/20 03:27:10;;;;;;;8.07;4.53;;;;;;;;;;4996220;28;20228;-87
2021/10/20 03:29:38;;;;;;;9.93;4.40;;;;;;;;;;4996393;28;20208;-88
2021/10/20 03:32:04;;;;;;;10.70;4.43;;;;;;;;;;4996241;28;20196;-89
2021/10/20 03:34:30;;;;;;;6.60;4.00;;;;;;;;;;4996259;28;20188;-88
2021/10/20 03:36:56;;;;;;;8.30;5.03;;;;;;;;;;4996063;28;20327;-87
2021/10/20 03:39:22;;;;;;;8.43;4.47;;;;;;;;;;4996122;28;20659;-88
2021/10/20 03:41:51;;;;;;;11.90;5.97;;;;;;;;;;4996208;28;20192;-87
2021/10/20 03:44:17;;;;;;;7.53;4.40;;;;;;;;;;4996043;28;20185;-88
2021/10/20 03:46:43;;;;;;;6.47;4.17;;;;;;;;;;4996389;28;20212;-88
2021/10/20 03:49:09;;;;;;;64.80;23.10;;;;;;;;;;5013626;28;20192;-88
2021/10/20 03:51:35;;;;;;;77.63;42.03;;;;;;;;;;4995599;28;20550;-88
2021/10/20 03:54:01;;;;;;;37.57;22.13;;;;;;;;;;4996115;28;20192;-88
2021/10/20 03:56:28;;;;;;;10.97;7.07;;;;;;;;;;4996060;28;20635;-88
2021/10/20 03:58:54;;;;;;;10.47;6.03;;;;;;;;;;4996113;28;20654;-87
2021/10/20 04:01:20;;;;;;;11.57;6.70;;;;;;;;;;5013154;28;20181;-87
2021/10/20 04:03:46;;;;;;;9.43;5.83;;;;;;;;;;4981252;28;20660;-86
2021/10/20 04:06:12;;;;;;;9.33;5.60;;;;;;;;;;4989088;28;20209;-87
2021/10/20 04:08:38;;;;;;;11.60;5.57;;;;;;;;;;4988319;28;20999;-87
2021/10/20 04:11:04;;;;;;;8.90;5.27;;;;;;;;;;4968143;28;20916;-87
2021/10/20 04:13:30;;;;;;;10.40;5.17;;;;;;;;;;4991970;28;20301;-87
2021/10/20 04:15:56;;;;;;;8.23;4.47;;;;;;;;;;4974002;28;20194;-87
2021/10/20 04:18:22;;;;;;;10.00;5.67;;;;;;;;;;4978580;28;20698;-87
2021/10/20 04:20:50;;;;;;;11.00;5.20;;;;;;;;;;4999052;28;20186;-87
2021/10/20 04:23:16;;;;;;;10.73;5.87;;;;;;;;;;4964721;28;20181;-88
2021/10/20 04:25:42;;;;;;;10.33;5.40;;;;;;;;;;4958086;28;20272;-88
2021/10/20 04:28:09;;;;;;;12.57;5.80;;;;;;;;;;4973690;28;20190;-86
2021/10/20 04:30:35;;;;;;;9.80;5.47;;;;;;;;;;5003016;28;20177;-86
2021/10/20 04:33:01;;;;;;;9.80;6.17;;;;;;;;;;4987128;28;20251;-87
2021/10/20 04:35:27;;;;;;;10.13;5.63;;;10.20;99.90;;;;;;4989869;28;20337;-86
2021/10/20 04:37:53;;;;;;;12.27;6.47;;;;;;;;;;4989954;28;20699;-87
2021/10/20 04:40:19;;;;;;;7.87;4.83;;;;;;;;;;5010785;28;20274;-86
2021/10/20 04:42:45;;;;;;;9.73;5.63;;;;;;;;;;5004250;28;20178;-86
2021/10/20 04:45:12;;;;;;;13.00;4.93;;;;;;;;;;5002440;28;20193;-86
2021/10/20 04:47:37;;;;;;;6.93;4.47;;;10.10;99.90;;;;;;4986142;28;20213;-88
2021/10/20 04:50:06;;;;;;;10.23;5.57;;;10.20;99.90;;;;;;4991222;28;20683;-87
2021/10/20 04:52:34;;;;;;;11.80;5.00;;;;;;;;;;4989783;28;20184;-87
2021/10/20 04:55:00;;;;;;;12.50;5.80;;;10.20;99.90;;;;;;5005544;28;20579;-85
2021/10/20 04:57:26;;;;;;;15.67;5.43;;;10.20;99.90;;;;;;4985120;28;20197;-85
2021/10/20 04:59:52;;;;;;;10.87;6.07;;;10.20;99.90;;;;;;5008621;28;20190;-86
2021/10/20 05:02:18;;;;;;;10.10;4.90;;;;;;;;;;4985636;28;20277;-87
2021/10/20 05:04:44;;;;;;;10.00;4.97;;;10.20;99.90;;;;;;4976290;28;20193;-86
2021/10/20 05:07:13;;;;;;;12.70;5.77;;;;;;;;;;5007026;28;20213;-88
2021/10/20 05:09:40;;;;;;;7.80;5.30;;;;;;;;;;4979287;28;20201;-87
2021/10/20 05:12:06;;;;;;;37.90;15.93;;;;;;;;;;4979541;28;20188;-86
2021/10/20 05:14:32;;;;;;;13.43;6.17;;;;;;;;;;4979352;28;20182;-86
2021/10/20 05:17:00;;;;;;;10.97;5.87;;;;;;;;;;5007806;28;20365;-89
2021/10/20 05:19:26;;;;;;;10.40;6.57;;;;;;;;;;5001864;28;20200;-89
2021/10/20 05:21:52;;;;;;;10.80;5.47;;;;;;;;;;4987013;28;20185;-87
2021/10/20 05:24:18;;;;;;;11.00;4.93;;;10.30;99.90;;;;;;4978436;28;20206;-85
2021/10/20 05:26:44;;;;;;;13.13;5.33;;;;;;;;;;4995467;28;20608;-85
2021/10/20 05:29:10;;;;;;;8.63;4.80;;;10.30;99.90;;;;;;4996156;28;20274;-86
2021/10/20 05:31:36;;;;;;;12.80;4.93;;;;;;;;;;4978087;28;20261;-85
2021/10/20 05:34:02;;;;;;;9.90;4.87;;;;;;;;;;4978487;28;20656;-86
2021/10/20 05:36:28;;;;;;;9.50;5.57;;;;;;;;;;4977646;28;20233;-86
2021/10/20 05:38:54;;;;;;;10.23;5.50;;;10.30;99.90;;;;;;4980836;28;20565;-86
2021/10/20 05:41:20;;;;;;;11.83;6.37;;;;;;;;;;4996172;28;20212;-87
2021/10/20 05:43:46;;;;;;;9.10;5.13;;;;;;;;;;4978664;28;20190;-87
2021/10/20 05:46:12;;;;;;;9.47;5.10;;;10.40;99.90;;;;;;4978259;28;20209;-86
2021/10/20 05:48:38;;;;;;;9.80;5.97;;;;;;;;;;4977275;28;20286;-86
2021/10/20 05:51:03;;;;;;;13.80;5.90;;;10.40;99.90;;;;;;4978386;28;20178;-87
2021/10/20 05:53:29;;;;;;;12.23;5.37;;;;;;;;;;4978362;28;20186;-86
2021/10/20 05:55:55;;;;;;;8.20;5.05;;;10.50;99.90;;;;;;4978127;28;20659;-85
2021/10/20 05:58:21;;;;;;;10.00;6.07;;;10.80;99.90;;;;;;4992422;28;20198;-86
2021/10/20 06:00:47;;;;;;;7.67;5.57;;;;;;;;;;4975577;28;20189;-85
2021/10/20 06:03:13;;;;;;;15.17;5.70;;;10.50;99.90;;;;;;4993792;28;20236;-85
2021/10/20 06:05:39;;;;;;;11.87;5.77;;;10.60;99.90;;;;;;4978633;28;20190;-86
2021/10/20 06:08:05;;;;;;;12.87;5.20;;;;;;;;;;4977776;28;20333;-85
2021/10/20 06:10:32;;;;;;;10.20;5.90;;;10.70;99.90;;;;;;4994041;28;20178;-86
2021/10/20 06:13:00;;;;;;;9.33;5.43;;;10.80;99.90;;;;;;4994360;28;20262;-86
2021/10/20 06:15:26;;;;;;;14.60;5.10;;;10.80;99.90;;;;;;4994289;28;20178;-86
2021/10/20 06:17:52;;;;;;;7.57;5.07;;;10.90;99.90;;;;;;4976462;28;20188;-86
2021/10/20 06:20:18;;;;;;;12.97;4.90;;;10.90;99.90;;;;;;4993974;28;20581;-86
2021/10/20 06:22:44;;;;;;;8.52;5.22;;;10.90;99.90;;;;;;4978542;28;20184;-86
2021/10/20 06:25:12;;;;;;;10.10;5.03;;;11.00;99.90;;;;;;4962752;28;20185;-89
2021/10/20 06:27:38;;;;;;;9.53;5.13;;;11.00;99.90;;;;;;4977923;28;20209;-87
2021/10/20 06:30:08;;;;;;;11.40;5.00;;;11.00;99.90;;;;;;4978681;28;20305;-86
2021/10/20 06:32:34;;;;;;;9.02;4.72;;;11.00;99.90;;;;;;4962038;28;20637;-86
2021/10/20 06:35:00;;;;;;;7.03;5.17;;;10.80;99.90;;;;;;4978042;28;20185;-87
2021/10/20 06:37:27;;;;;;;10.17;4.90;;;;;;;;;;4979330;28;20178;-86
2021/10/20 06:39:53;;;;;;;12.53;5.03;;;11.00;99.90;;;;;;4998588;28;20177;-86
2021/10/20 06:42:19;;;;;;;13.60;5.47;;;9.70;99.90;;;;;;4982236;28;20244;-86
2021/10/20 06:44:45;;;;;;;10.03;5.33;;;;;;;;;;4997362;28;20633;-86
2021/10/20 06:47:11;;;;;;;10.88;5.35;;;11.10;99.90;;;;;;4996536;28;20292;-86
2021/10/20 06:49:37;;;;;;;7.43;4.83;;;;;;;;;;4994850;28;20277;-87
2021/10/20 06:52:03;;;;;;;13.48;5.35;;;11.20;99.90;;;;;;4994293;28;20269;-87
2021/10/20 06:54:29;;;;;;;8.80;5.47;;;;;;;;;;4996360;28;20697;-87
2021/10/20 06:56:55;;;;;;;12.50;4.83;;;11.30;99.90;;;;;;4994688;28;20182;-86
2021/10/20 06:59:21;;;;;;;12.77;5.20;;;11.90;99.90;;;;;;4995463;28;20213;-86
2021/10/20 07:01:47;;;;;;;10.32;5.10;;;;;;;;;;4997065;28;20217;-86
2021/10/20 07:04:13;;;;;;;8.00;4.85;;;11.80;99.90;;;;;;4993726;28;20189;-87
2021/10/20 07:06:39;;;;;;;7.22;5.00;;;;;;;;;;4994494;28;20218;-86
2021/10/20 07:09:06;;;;;;;7.85;4.50;;;11.60;99.90;;;;;;4996414;28;20276;-86
2021/10/20 07:11:34;;;;;;;9.30;4.80;;;12.10;99.90;;;;;;4978051;28;20186;-87
2021/10/20 07:13:59;;;;;;;13.23;5.53;;;11.70;99.90;;;;;;4977343;28;20707;-86
2021/10/20 07:16:25;;;;;;;8.10;4.75;;;;;;;;;;4994026;28;20224;-86
2021/10/20 07:18:51;;;;;;;11.95;5.10;;;11.90;99.90;;;;;;4993239;28;20205;-89
2021/10/20 07:21:18;;;;;;;9.48;4.75;;;12.00;99.90;;;;;;4978007;28;20589;-88
2021/10/20 07:23:46;;;;;;;14.05;5.07;;;12.00;99.90;;;;;;4977372;28;20636;-87
2021/10/20 07:26:14;;;;;;;9.75;5.13;;;12.10;99.90;;;;;;4976337;28;20244;-87
2021/10/20 07:28:40;;;;;;;9.68;4.95;;;12.10;99.90;;;;;;4993872;28;20186;-87
2021/10/20 07:31:11;;;;;;;11.60;4.97;;;11.70;99.90;;;;;;4959953;28;20197;-88
2021/10/20 07:33:37;;;;;;;6.88;4.65;;;12.20;99.90;;;;;;4961379;28;20197;-90
2021/10/20 07:36:03;;;;;;;10.50;5.03;;;12.30;99.90;;;;;;4991582;28;20596;-86
2021/10/20 07:38:28;;;;;;;5.70;4.25;;;12.20;99.90;;;;;;4992631;28;20186;-87
2021/10/20 07:40:54;;;;;;;8.07;4.57;;;;;;;;;;4991380;28;20178;-88
2021/10/20 07:43:20;;;;;;;10.80;4.40;;;12.30;99.90;;;;;;4992042;28;20238;-89
2021/10/20 07:45:48;;;;;;;9.80;4.97;;;12.20;99.90;;;;;;4976161;28;20637;-88
2021/10/20 07:48:15;;;;;;;11.68;4.97;;;12.30;99.90;;;;;;4993945;28;20267;-88
2021/10/20 07:50:42;;;;;;;9.73;4.95;;;12.50;99.90;;;;;;4994343;28;20182;-89
2021/10/20 07:53:10;;;;;;;9.98;4.63;;;12.80;99.90;;;;;;4996394;28;20182;-88
2021/10/20 07:55:36;;;;;;;5.55;4.20;;;12.10;99.90;;;;;;4994630;28;20185;-88
2021/10/20 07:58:02;;;;;;;12.90;5.30;;;12.20;99.90;;;;;;4994663;28;20178;-88
2021/10/20 08:00:28;;;;;;;10.35;5.18;;;12.20;99.90;;;;;;4993789;28;20196;-88
2021/10/20 08:02:54;;;;;;;10.32;4.97;;;;;;;;;;4992667;28;20188;-88
2021/10/20 08:05:21;;;;;;;8.35;4.97;;;12.30;99.90;;;;;;4977007;28;20178;-88
2021/10/20 08:07:47;;;;;;;11.40;5.03;;;12.80;99.90;;;;;;4976542;28;20569;-87
2021/10/20 08:10:17;;;;;;;10.27;5.15;;;12.30;99.90;;;;;;4994069;28;20178;-88
2021/10/20 08:12:43;;;;;;;11.13;5.43;;;12.10;99.90;;;;;;4992864;28;20251;-88
2021/10/20 08:15:11;;;;;;;9.27;5.57;;;12.30;99.90;;;;;;4993175;28;20201;-87
2021/10/20 08:17:37;;;;;;;8.88;5.20;;;12.20;99.90;;;;;;4994436;28;20182;-87
2021/10/20 08:20:06;;;;;;;11.98;5.07;;;12.70;99.90;;;;;;4975242;28;20645;-88
2021/10/20 08:22:31;;;;;;;16.10;5.30;;;12.30;99.90;;;;;;4976828;28;20224;-88
2021/10/20 08:24:58;;;;;;;9.95;4.47;;;;;;;;;;4978680;28;20625;-88
2021/10/20 08:27:23;;;;;;;9.90;4.97;;;12.20;99.90;;;;;;4994722;28;20244;-88
2021/10/20 08:29:49;;;;;;;10.73;5.97;;;12.20;99.90;;;;;;4977430;28;20206;-89
2021/10/20 08:32:15;;;;;;;7.50;4.75;;;;;;;;;;4995208;28;20627;-88
2021/10/20 08:34:51;;;;;;;;;;;;;;;;;;;;;
2021/10/20 08:37:21;;;;;;;9.02;5.68;;;;;;;;;;5009232;27;2865237;-90
2021/10/20 08:39:47;;;;;;;10.85;5.85;;;12.40;99.90;;;;;;5111957;28;20185;-90
2021/10/20 08:42:13;;;;;;;7.03;5.00;;;12.40;99.90;;;;;;5094042;28;20254;-90
2021/10/20 08:44:46;;;;;;;11.35;5.40;;;11.50;99.90;;;;;;5112624;28;20181;-89
2021/10/20 08:47:15;;;;;;;11.13;5.32;;;12.50;99.90;;;;;;5093475;28;20208;-89
2021/10/20 08:49:43;;;;;;;7.25;4.78;;;12.60;99.90;;;;;;5112450;28;20185;-90
2021/10/20 08:52:10;;;;;;;13.98;5.43;;;12.70;99.90;;;;;;5112511;28;20174;-90
2021/10/20 08:54:36;;;;;;;9.45;5.38;;;14.10;99.90;;;;;;5110942;28;20655;-90
2021/10/20 08:57:05;;;;;;;7.82;4.95;;;12.70;99.90;;;;;;5110450;28;20276;-89
2021/10/20 08:59:32;;;;;;;8.93;4.97;;;12.90;99.90;;;;;;5134242;28;20186;-88
2021/10/20 09:02:03;;;;;;;7.93;5.40;;;12.00;99.90;;;;;;5133547;28;20178;-89
2021/10/20 09:04:30;;;;;;;9.30;5.60;;;12.90;99.90;;;;;;5112280;28;20170;-88
2021/10/20 09:06:58;;;;;;;13.18;5.90;;;;;;;;;;5110260;28;20511;-90
2021/10/20 09:09:33;;;;;;;13.23;6.28;;;12.80;99.90;;;;;;5111625;28;20193;-90
2021/10/20 09:12:01;;;;;;;10.75;5.60;;;12.90;99.90;;;;;;5111971;28;20166;-90
2021/10/20 09:14:27;;;;;;;6.90;4.88;;;12.90;99.90;;;;;;5111838;28;20228;-89
2021/10/20 09:16:53;;;;;;;8.00;4.72;;;;;;;;;;5109739;28;20292;-90
2021/10/20 09:19:31;;;;;;;8.27;5.40;;;13.00;99.90;;;;;;5109312;28;20189;-90
2021/10/20 09:22:03;;;;;;;11.82;5.88;;;13.40;99.90;;;;;;5109668;28;20669;-89
2021/10/20 09:24:43;;;;;;;14.10;5.65;;;13.20;99.90;;;;;;5109167;28;20218;-89
2021/10/20 09:27:27;;;;;;;10.35;5.57;;;13.30;99.90;;;;;;5110338;28;20189;-91
2021/10/20 09:30:16;;;;;;;10.95;5.15;;;13.70;99.90;;;;;;5099918;28;20194;-89
2021/10/20 09:32:42;;;;;;;10.73;5.80;;;13.60;99.90;;;;;;5089653;28;20657;-90
2021/10/20 09:35:12;;;;;;;13.93;5.40;;;13.50;99.90;;;;;;5089775;28;20175;-89
2021/10/20 09:37:45;;;;;;;6.43;4.78;;;13.70;99.90;;;;;;5093767;28;20651;-93
2021/10/20 09:40:13;;;;;;;8.00;5.05;;;14.00;99.90;;;;;;5112806;28;20173;-90
2021/10/20 09:42:57;;;;;;;8.93;5.20;;;14.30;99.90;;;;;;5097113;28;20292;-91
2021/10/20 09:45:26;;;;;;;11.95;5.35;;;14.20;99.90;;;;;;5096684;28;20197;-92
2021/10/20 09:48:20;;;;;;;7.75;4.97;;;12.00;99.90;;;;;;5104996;28;20271;-91
2021/10/20 09:51:02;;;;;;;9.27;5.30;;;14.50;99.90;;;;;;5100211;28;20192;-91
2021/10/20 09:53:48;;;;;;;14.63;4.97;;;12.80;99.90;;;;;;5100275;28;20181;-92
2021/10/20 09:56:38;;;;;;;10.82;5.05;;;14.70;99.90;;;;;;5100028;28;20209;-92
2021/10/20 09:59:09;;;;;;;8.20;4.35;;;14.50;99.90;;;;;;5089829;28;20174;-92
2021/10/20 10:01:36;;;;;;;8.68;5.15;;;14.80;99.90;;;;;;5093252;28;20186;-90
2021/10/20 10:04:02;;;;;;;9.95;5.05;;;14.50;99.90;;;;;;5077975;28;20174;-90
2021/10/20 10:06:29;;;;;;;12.57;5.40;;;14.70;99.90;;;;;;5098444;28;20228;-91
2021/10/20 10:08:59;;;;;;;9.05;4.97;;;14.90;99.90;;;;;;5089300;28;20183;-92
2021/10/20 10:11:31;;;;;;;9.18;5.20;;;14.10;99.90;;;;;;5071819;28;20184;-91
2021/10/20 10:14:02;;;;;;;12.13;5.07;;;15.10;99.90;;;;;;5087960;28;20319;-91
2021/10/20 10:16:32;;;;;;;9.85;4.90;;;15.30;99.90;;;;;;5100174;28;20207;-92
2021/10/20 10:19:00;;;;;;;8.90;5.43;;;16.10;99.90;;;;;;5088540;28;20200;-90
2021/10/20 10:21:35;;;;;;;8.05;5.22;;;15.80;99.90;;;;;;5077353;28;20181;-88
2021/10/20 10:24:11;;;;;;;9.32;4.97;;;16.20;99.90;;;;;;5078918;28;20181;-89
2021/10/20 10:27:07;;;;;;;10.27;5.00;;;16.20;99.90;;;;;;5079756;28;20657;-91
2021/10/20 10:29:45;;;;;;;9.75;4.68;;;17.30;99.90;;;;;;5077253;28;20185;-92
2021/10/20 10:32:11;;;;;;;13.02;5.15;;;16.20;99.90;;;;;;5095115;28;20183;-90
2021/10/20 10:34:45;;;;;;;7.68;4.90;;;16.30;99.90;;;;;;5076285;28;20300;-91
2021/10/20 10:37:27;;;;;;;12.63;4.53;;;16.30;99.90;;;;;;5075895;28;20234;-92
2021/10/20 10:39:59;;;;;;;6.95;4.50;;;16.70;99.90;;;;;;5094468;28;20635;-91
2021/10/20 10:42:34;;;;;;;12.43;4.47;;;16.10;99.90;;;;;;5076920;28;20185;-90
2021/10/20 10:45:16;;;;;;;7.03;4.47;;;16.40;99.90;;;;;;5076015;28;20526;-91
2021/10/20 10:48:08;;;;;;;8.23;4.80;;;16.00;99.90;;;;;;5076704;28;20175;-91
2021/10/20 10:50:49;;;;;;;11.82;5.03;;;13.60;99.90;;;;;;5075043;28;20190;-89
2021/10/20 10:53:38;;;;;;;6.18;5.03;;;15.80;99.90;;;;;;5075596;28;20186;-90
2021/10/20 10:56:07;;;;;;;8.40;5.10;;;16.00;99.90;;;;;;5075084;28;20202;-91
2021/10/20 10:58:55;;;;;;;9.07;4.43;;;16.10;99.90;;;;;;5073729;28;20631;-87
2021/10/20 11:01:43;;;;;;;13.65;5.03;;;16.00;99.90;;;;;;5096812;28;20166;-91
2021/10/20 11:04:18;;;;;;;10.80;4.78;;;15.80;99.90;;;;;;5114841;28;20170;-91
2021/10/20 11:06:44;;;;;;;7.13;4.90;;;16.00;99.90;;;;;;5096236;28;20537;-90
2021/10/20 11:09:22;;;;;;;6.82;4.55;;;16.30;99.90;;;;;;5113298;28;20174;-90
2021/10/20 11:11:55;;;;;;;8.05;4.78;;;16.40;99.90;;;;;;5096534;28;20180;-90
2021/10/20 11:14:26;;;;;;;9.45;5.40;;;16.50;99.90;;;;;;5095703;28;20173;-90
2021/10/20 11:17:03;;;;;;;15.07;5.03;;;16.20;99.90;;;;;;5114191;28;20209;-91
2021/10/20 11:19:30;;;;;;;10.75;4.82;;;16.30;99.90;;;;;;5087337;28;20178;-90
2021/10/20 11:21:58;;;;;;;8.88;4.90;;;16.30;99.90;;;;;;5108002;28;20673;-90
2021/10/20 11:24:24;;;;;;;7.65;4.72;;;16.80;99.90;;;;;;5113375;28;20188;-90
2021/10/20 11:26:53;;;;;;;10.05;5.13;;;16.40;99.90;;;;;;5088704;28;20185;-91
2021/10/20 11:29:22;;;;;;;8.25;4.60;;;16.70;99.90;;;;;;5083729;28;20205;-91
2021/10/20 11:31:58;;;;;;;9.10;4.50;;;16.80;99.90;;;;;;5081361;28;20231;-91
2021/10/20 11:34:26;;;;;;;9.90;5.20;;;16.90;99.90;;;;;;5086034;28;20670;-91
2021/10/20 11:37:01;;;;;;;10.70;5.57;;;19.70;99.90;;;;;;5081828;28;20226;-91
2021/10/20 11:39:29;;;;;;;11.85;5.45;;;17.20;99.90;;;;;;5083027;28;20533;-92
2021/10/20 11:42:01;;;;;;;11.93;5.97;;;16.90;99.90;;;;;;5080886;28;20228;-91
2021/10/20 11:44:31;;;;;;;10.07;5.43;;;17.00;99.90;;;;;;5084921;28;20186;-90
2021/10/20 11:47:00;;;;;;;8.80;5.22;;;15.70;99.90;;;;;;5085143;28;20645;-91
2021/10/20 11:49:27;;;;;;;9.30;5.07;;;16.90;99.90;;;;;;5084420;28;20174;-91
2021/10/20 11:51:54;;;;;;;7.07;5.20;;;17.30;99.90;;;;;;5095808;28;20177;-91
2021/10/20 11:54:25;;;;;;;7.93;5.55;;;17.00;99.90;;;;;;5095621;28;20177;-89
2021/10/20 11:56:57;;;;;;;8.20;5.10;;;17.00;99.90;;;;;;5113754;28;20553;-90
2021/10/20 11:59:27;;;;;;;9.48;5.45;;;17.00;99.90;;;;;;5113531;28;20182;-94
2021/10/20 12:01:53;;;;;;;7.63;4.82;;;17.00;99.90;;;;;;5113946;28;20618;-90
2021/10/20 12:04:21;;;;;;;14.38;5.47;;;17.00;99.90;;;;;;5113412;28;20193;-90
2021/10/20 12:06:49;;;;;;;10.23;5.78;;;17.00;99.90;;;;;;5093677;28;20685;-89
2021/10/20 12:09:15;;;;;;;8.27;5.03;;;17.00;99.90;;;;;;5094024;28;20235;-89
2021/10/20 12:11:42;;;;;;;6.57;4.30;;;16.90;99.90;;;;;;5094081;28;20698;-90
2021/10/20 12:14:12;;;;;;;7.80;4.90;;;16.90;99.90;;;;;;5112163;28;20267;-90
2021/10/20 12:16:40;;;;;;;13.75;4.78;;;16.90;99.90;;;;;;5092837;28;20198;-89
2021/10/20 12:19:10;;;;;;;13.30;5.18;;;17.00;99.90;;;;;;5099384;28;20198;-90
2021/10/20 12:21:40;;;;;;;9.77;4.97;;;17.10;99.90;;;;;;5096545;28;20232;-90
2021/10/20 12:24:07;;;;;;;8.75;5.03;;;17.10;99.90;;;;;;5099011;28;20194;-89
2021/10/20 12:26:36;;;;;;;6.40;4.60;;;17.10;99.90;;;;;;5084728;28;20186;-89
2021/10/20 12:29:05;;;;;;;11.35;5.32;;;17.20;99.90;;;;;;5081061;28;20205;-88
2021/10/20 12:31:31;;;;;;;12.88;5.03;;;17.30;99.90;;;;;;5101682;28;20175;-89
2021/10/20 12:33:57;;;;;;;7.65;4.70;;;17.50;99.90;;;;;;5083052;28;20212;-91
2021/10/20 12:36:28;;;;;;;12.80;5.13;;;17.40;99.90;;;;;;5067581;28;20306;-90
2021/10/20 12:38:57;;;;;;;11.98;5.18;;;17.20;99.90;;;;;;5093525;28;20158;-89
2021/10/20 12:41:28;;;;;;;8.60;5.20;;;17.10;99.90;;;;;;5099659;28;20167;-89
2021/10/20 12:43:55;;;;;;;8.75;5.75;;;17.10;99.90;;;;;;5091078;28;20261;-90
2021/10/20 12:46:28;;;;;;;11.02;6.45;;;17.10;99.90;;;;;;5084773;28;20209;-89
2021/10/20 12:48:54;;;;;;;13.13;6.35;;;17.30;99.90;;;;;;5067710;28;20180;-90
2021/10/20 12:51:24;;;;;;;10.45;5.80;;;17.30;99.90;;;;;;5102900;28;20208;-89
2021/10/20 12:53:55;;;;;;;13.68;4.80;;;17.30;99.90;;;;;;5078498;28;20623;-89
2021/10/20 12:56:23;;;;;;;9.23;5.25;;;17.30;99.90;;;;;;5077785;28;20206;-89
2021/10/20 12:59:02;;;;;;;9.18;5.70;;;16.50;99.90;;;;;;5077743;28;20218;-88
2021/10/20 13:01:28;;;;;;;10.55;5.43;;;17.40;99.90;;;;;;5080129;28;20234;-89
2021/10/20 13:03:53;;;;;;;11.13;4.63;;;17.00;99.90;;;;;;5078137;28;20623;-89
2021/10/20 13:06:19;;;;;;;8.75;4.35;;;;;;;;;;5078130;28;20319;-88
2021/10/20 13:08:50;;;;;;;6.28;4.65;;;17.50;99.90;;;;;;5074194;28;20281;-89
2021/10/20 13:11:15;;;;;;;12.13;4.80;;;17.60;99.90;;;;;;5056513;28;20185;-88
2021/10/20 13:13:41;;;;;;;14.18;4.85;;;17.50;99.90;;;;;;5100750;28;20530;-89
2021/10/20 13:16:07;;;;;;;12.80;5.85;;;17.70;99.90;;;;;;5085389;28;20221;-90
2021/10/20 13:18:33;;;;;;;16.08;5.70;;;;;;;;;;5105355;28;20190;-91
2021/10/20 13:20:59;;;;;;;12.50;5.85;;;17.50;99.90;;;;;;5084709;28;20634;-92
2021/10/20 13:23:26;;;;;;;12.70;5.18;;;17.40;99.90;;;;;;5086839;28;20231;-92
2021/10/20 13:25:52;;;;;;;9.50;5.57;;;17.30;99.90;;;;;;5071383;28;20182;-93
2021/10/20 13:28:23;;;;;;;13.38;5.38;;;17.30;99.90;;;;;;5072414;28;20170;-92
2021/10/20 13:30:50;;;;;;;9.25;5.03;;;17.40;99.90;;;;;;5077588;28;20633;-92